Time;durP1;ratioP1;P1;durP2;ratioP2;P2;SDS_P1;SDS_P2;PMS_P1;PMS_P2;Temp;Humidity;BMP_temperature;BMP_pressure;BME280_temperature;BME280_humidity;BME280_pressure;Samples;Min_cycle;Max_cycle;Signal;HPM_P1;HPM_P2
2022/11/08 00:01:31;;;;;;;1.60;1.20;;;22.30;98.90;;;;;;5027334;28;20768;-40
2022/11/08 00:03:58;;;;;;;1.30;1.07;;;22.20;98.90;;;;;;5029232;28;20481;-41
2022/11/08 00:14:39;;;;;;;1.40;1.20;;;22.20;99.00;;;;;;5026490;28;20872;-42
2022/11/08 00:17:06;;;;;;;1.57;0.90;;;22.20;98.90;;;;;;5021267;28;20486;-41
2022/11/08 00:19:32;;;;;;;2.13;1.20;;;22.20;98.80;;;;;;5026037;28;20462;-40
2022/11/08 00:22:00;;;;;;;1.43;1.30;;;22.20;98.80;;;;;;5029842;28;20469;-42
2022/11/08 00:24:27;;;;;;;2.20;1.23;;;22.20;98.80;;;;;;5024650;28;20478;-43
2022/11/08 00:26:54;;;;;;;1.73;1.10;;;22.20;98.80;;;;;;5029570;28;20455;-41
2022/11/08 00:29:20;;;;;;;1.37;1.07;;;22.20;98.80;;;;;;5028577;28;20466;-41
2022/11/08 00:31:47;;;;;;;2.23;1.27;;;22.10;98.70;;;;;;5031471;28;21116;-40
2022/11/08 00:34:14;;;;;;;1.90;1.00;;;22.10;98.70;;;;;;5027639;28;20450;-42
2022/11/08 00:36:40;;;;;;;4.47;1.00;;;22.10;98.80;;;;;;5020454;28;20466;-41
2022/11/08 00:39:09;;;;;;;1.53;1.20;;;22.10;98.70;;;;;;5024955;28;21174;-42
2022/11/08 00:41:36;;;;;;;2.40;1.43;;;22.10;98.70;;;;;;5026851;28;20470;-41
2022/11/08 00:44:03;;;;;;;1.63;1.20;;;22.10;98.80;;;;;;5021252;28;21010;-41
2022/11/08 00:46:30;;;;;;;1.77;1.17;;;22.00;98.70;;;;;;5019430;28;20474;-40
2022/11/08 00:48:57;;;;;;;1.40;1.10;;;22.10;98.80;;;;;;5021400;28;20462;-40
2022/11/08 00:51:24;;;;;;;2.30;1.20;;;22.00;98.80;;;;;;5031014;28;20450;-41
2022/11/08 00:53:50;;;;;;;1.30;0.90;;;22.00;98.80;;;;;;5026872;28;20508;-40
2022/11/08 00:56:18;;;;;;;1.60;1.30;;;22.00;98.90;;;;;;5028741;28;20465;-39
2022/11/08 00:58:45;;;;;;;2.47;1.20;;;21.90;98.90;;;;;;5021632;28;20922;-41
2022/11/08 01:01:14;;;;;;;1.33;1.00;;;21.90;98.90;;;;;;5016838;28;20468;-43
2022/11/08 01:03:40;;;;;;;1.20;0.90;;;21.90;99.00;;;;;;5028360;28;20474;-40
2022/11/08 01:06:09;;;;;;;2.10;1.20;;;21.80;99.00;;;;;;5034408;28;20445;-40
2022/11/08 01:08:36;;;;;;;1.13;0.93;;;21.90;99.10;;;;;;5021836;28;20544;-41
2022/11/08 01:11:06;;;;;;;1.80;0.90;;;21.80;99.00;;;;;;5032442;28;20458;-41
2022/11/08 01:13:35;;;;;;;1.58;1.13;;;21.80;99.10;;;;;;5031969;28;20195;-40
2022/11/08 01:16:06;;;;;;;1.60;1.00;;;21.80;99.20;;;;;;5021301;28;20200;-40
2022/11/08 01:18:33;;;;;;;1.73;1.10;;;21.80;99.30;;;;;;5026949;28;20645;-42
2022/11/08 01:21:01;;;;;;;1.83;1.15;;;21.70;99.30;;;;;;5028297;28;20454;-41
2022/11/08 01:23:28;;;;;;;1.27;1.17;;;21.70;99.30;;;;;;5030705;28;20192;-42
2022/11/08 01:25:55;;;;;;;1.92;1.10;;;21.70;99.60;;;;;;5027636;28;20211;-41
2022/11/08 01:28:22;;;;;;;2.40;1.30;;;21.70;99.50;;;;;;5025934;28;20204;-41
2022/11/08 01:30:50;;;;;;;1.60;1.10;;;21.60;99.50;;;;;;5027379;28;20239;-41
2022/11/08 01:33:16;;;;;;;1.10;1.00;;;21.60;99.60;;;;;;5026703;28;20211;-41
2022/11/08 01:35:45;;;;;;;1.80;1.25;;;21.60;99.60;;;;;;5033205;28;20196;-41
2022/11/08 01:38:12;;;;;;;2.10;1.00;;;21.50;99.60;;;;;;5031555;28;20629;-41
2022/11/08 01:40:43;;;;;;;1.58;0.85;;;21.50;99.70;;;;;;5018883;28;20212;-43
2022/11/08 01:43:34;;;;;;;2.20;1.20;;;21.50;99.80;;;;;;5031432;28;20247;-41
2022/11/08 01:46:33;;;;;;;2.97;1.63;;;21.50;99.90;;;;;;5025197;28;20250;-41
2022/11/08 01:49:26;;;;;;;1.85;1.00;;;21.40;99.90;;;;;;5028576;28;20675;-41
2022/11/08 01:51:59;;;;;;;1.33;1.20;;;21.40;99.90;;;;;;5026705;28;20663;-41
2022/11/08 01:54:34;;;;;;;1.10;0.80;;;21.40;99.90;;;;;;5023855;28;20214;-41
2022/11/08 01:57:04;;;;;;;1.50;1.00;;;21.40;99.90;;;;;;5028116;28;20199;-41
2022/11/08 01:59:31;;;;;;;1.20;1.10;;;21.40;99.90;;;;;;5026850;28;20215;-41
2022/11/08 02:01:59;;;;;;;1.10;0.90;;;21.30;99.90;;;;;;5030290;28;20191;-40
2022/11/08 02:04:26;;;;;;;1.95;1.00;;;21.30;99.90;;;;;;5030776;28;20231;-41
2022/11/08 02:06:53;;;;;;;1.40;1.00;;;21.30;99.90;;;;;;5033331;28;20450;-41
2022/11/08 02:09:20;;;;;;;2.55;0.95;;;21.30;99.90;;;;;;5027744;28;20199;-41
2022/11/08 02:11:48;;;;;;;1.13;1.00;;;21.30;99.90;;;;;;5024249;28;21153;-41
2022/11/08 02:14:16;;;;;;;1.55;1.20;;;21.30;99.90;;;;;;5030388;28;20207;-42
2022/11/08 02:16:43;;;;;;;3.60;1.50;;;21.20;99.90;;;;;;5021785;28;20737;-41
2022/11/08 02:19:19;;;;;;;1.38;0.90;;;21.20;99.90;;;;;;5014330;28;20207;-41
2022/11/08 02:21:49;;;;;;;1.63;1.25;;;21.20;99.90;;;;;;5019287;28;20188;-41
2022/11/08 02:24:17;;;;;;;1.60;1.20;;;21.10;99.90;;;;;;5025083;28;20580;-40
2022/11/08 02:26:45;;;;;;;1.55;1.23;;;21.10;99.90;;;;;;5018963;28;20211;-41
2022/11/08 02:29:23;;;;;;;1.40;1.20;;;21.10;99.90;;;;;;5027478;28;20198;-41
2022/11/08 02:31:50;;;;;;;2.15;1.10;;;21.10;99.90;;;;;;5026078;28;20196;-41
2022/11/08 02:34:17;;;;;;;1.98;1.20;;;21.10;99.90;;;;;;5032003;28;20566;-41
2022/11/08 02:36:47;;;;;;;1.63;1.00;;;21.10;99.90;;;;;;5026897;28;20654;-41
2022/11/08 02:39:14;;;;;;;1.90;1.00;;;21.00;99.90;;;;;;5029939;28;20199;-41
2022/11/08 02:41:42;;;;;;;2.25;1.58;;;21.00;99.90;;;;;;5031350;28;20211;-41
2022/11/08 02:44:09;;;;;;;1.25;0.90;;;21.00;99.90;;;;;;5029300;28;20226;-41
2022/11/08 02:46:35;;;;;;;1.52;1.00;;;21.00;99.90;;;;;;5024889;28;20188;-41
2022/11/08 02:49:02;;;;;;;1.20;1.00;;;21.00;99.90;;;;;;5027090;28;20196;-40
2022/11/08 02:51:29;;;;;;;1.63;1.00;;;20.90;99.90;;;;;;5029825;28;20586;-41
2022/11/08 02:53:56;;;;;;;1.63;1.15;;;20.90;99.90;;;;;;5023847;28;20442;-42
2022/11/08 02:56:23;;;;;;;1.27;0.80;;;20.90;99.90;;;;;;5026074;28;20985;-41
2022/11/08 02:58:51;;;;;;;1.48;1.38;;;20.90;99.90;;;;;;5021549;28;20196;-41
2022/11/08 03:01:17;;;;;;;1.90;1.48;;;20.80;99.90;;;;;;5024639;28;20579;-41
2022/11/08 03:03:44;;;;;;;1.50;1.05;;;20.80;99.90;;;;;;5027757;28;20199;-41
2022/11/08 03:06:11;;;;;;;1.75;1.00;;;20.80;99.90;;;;;;5031406;28;20618;-40
2022/11/08 03:08:37;;;;;;;1.40;1.25;;;20.80;99.90;;;;;;5031343;28;20199;-40
2022/11/08 03:11:04;;;;;;;1.00;0.85;;;20.80;99.90;;;;;;5020590;28;20572;-40
2022/11/08 03:13:31;;;;;;;1.90;1.05;;;20.70;99.90;;;;;;5030535;28;20551;-41
2022/11/08 03:16:02;;;;;;;1.80;0.90;;;20.70;99.90;;;;;;5028161;28;20214;-41
2022/11/08 03:18:29;;;;;;;1.52;1.20;;;20.70;99.90;;;;;;5032263;28;20610;-41
2022/11/08 03:20:55;;;;;;;2.25;0.95;;;20.70;99.90;;;;;;5032262;28;20215;-40
2022/11/08 03:23:22;;;;;;;1.20;1.08;;;20.70;99.90;;;;;;5023353;28;20200;-41
2022/11/08 03:25:49;;;;;;;1.70;1.00;;;20.70;99.90;;;;;;5029638;28;20227;-42
2022/11/08 03:28:15;;;;;;;2.55;1.30;;;20.70;99.90;;;;;;5051836;28;20203;-41
2022/11/08 03:30:42;;;;;;;1.70;0.98;;;20.60;99.90;;;;;;5033808;28;20587;-41
2022/11/08 03:33:10;;;;;;;1.73;1.00;;;20.60;99.90;;;;;;5029389;28;20204;-41
2022/11/08 03:35:37;;;;;;;1.65;1.25;;;20.60;99.90;;;;;;5026719;28;20200;-41
2022/11/08 03:38:04;;;;;;;1.27;0.80;;;20.60;99.90;;;;;;5029842;28;20674;-40
2022/11/08 03:40:31;;;;;;;1.80;1.13;;;20.60;99.90;;;;;;5024334;28;20196;-40
2022/11/08 03:42:58;;;;;;;1.10;0.90;;;20.50;99.90;;;;;;5025391;28;20302;-41
2022/11/08 03:45:24;;;;;;;1.73;1.00;;;20.50;99.90;;;;;;5027282;28;20230;-41
2022/11/08 03:47:51;;;;;;;1.92;0.90;;;20.50;99.90;;;;;;5023606;28;20188;-41
2022/11/08 03:50:19;;;;;;;1.35;0.98;;;20.50;99.90;;;;;;5038003;28;20206;-40
2022/11/08 03:52:49;;;;;;;1.05;0.80;;;20.50;99.90;;;;;;5038850;28;20199;-41
2022/11/08 03:55:17;;;;;;;1.38;0.90;;;20.40;99.90;;;;;;5029027;28;20574;-41
2022/11/08 03:57:46;;;;;;;1.00;0.70;;;20.40;99.90;;;;;;5024293;28;20196;-41
2022/11/08 04:00:16;;;;;;;1.77;0.93;;;20.40;99.90;;;;;;5026165;28;20202;-41
2022/11/08 04:02:43;;;;;;;1.40;1.00;;;20.40;99.90;;;;;;5029084;28;20200;-41
2022/11/08 04:05:11;;;;;;;1.27;0.90;;;20.40;99.90;;;;;;5027401;28;20204;-41
2022/11/08 04:07:40;;;;;;;1.13;0.88;;;20.40;99.90;;;;;;5020101;28;20203;-41
2022/11/08 04:10:08;;;;;;;2.78;1.17;;;20.40;99.90;;;;;;5024652;28;20203;-41
2022/11/08 04:15:23;;;;;;;1.30;0.90;;;20.30;99.90;;;;;;5028615;28;20229;-41
2022/11/08 04:23:23;;;;;;;1.48;0.80;;;20.30;99.90;;;;;;5026419;28;20571;-41
2022/11/08 04:25:55;;;;;;;1.33;1.05;;;20.30;99.90;;;;;;5022115;28;20216;-42
2022/11/08 04:28:24;;;;;;;1.13;0.90;;;20.20;99.90;;;;;;5022027;28;20286;-41
2022/11/08 04:30:56;;;;;;;1.23;0.90;;;20.20;99.90;;;;;;5020280;28;20216;-41
2022/11/08 04:33:23;;;;;;;1.30;1.05;;;20.20;99.90;;;;;;5023697;28;20208;-41
2022/11/08 04:35:50;;;;;;;1.10;0.90;;;20.20;99.90;;;;;;5029636;28;20482;-42
2022/11/08 04:38:17;;;;;;;1.23;0.93;;;20.20;99.90;;;;;;5028192;28;20203;-41
2022/11/08 04:40:46;;;;;;;1.80;1.27;;;20.10;99.90;;;;;;5029301;28;20729;-41
2022/11/08 04:43:13;;;;;;;1.70;0.80;;;20.10;99.90;;;;;;5027858;28;20214;-41
2022/11/08 04:45:40;;;;;;;1.10;0.90;;;20.10;99.90;;;;;;5023195;28;20211;-41
2022/11/08 04:48:07;;;;;;;1.17;0.80;;;20.10;99.90;;;;;;5020232;28;20204;-41
2022/11/08 04:50:35;;;;;;;1.48;1.15;;;20.30;99.90;;;;;;5030727;28;20192;-41
2022/11/08 04:53:02;;;;;;;1.20;0.88;;;20.40;99.90;;;;;;5026475;28;20240;-41
2022/11/08 04:55:28;;;;;;;1.10;0.70;;;20.40;99.90;;;;;;5014175;28;20204;-42
2022/11/08 04:57:58;;;;;;;2.95;1.42;;;20.40;99.90;;;;;;5028453;28;20826;-41
2022/11/08 05:00:26;;;;;;;1.38;0.88;;;20.30;99.90;;;;;;5027482;28;20207;-41
2022/11/08 05:02:52;;;;;;;1.92;1.23;;;20.20;99.90;;;;;;5024144;28;20192;-40
2022/11/08 05:05:19;;;;;;;1.38;1.10;;;20.20;99.90;;;;;;5030865;28;20234;-41
2022/11/08 05:07:46;;;;;;;1.85;0.80;;;20.10;99.90;;;;;;5024861;28;20595;-41
2022/11/08 05:10:12;;;;;;;1.35;0.80;;;20.10;99.90;;;;;;5026809;28;20206;-42
2022/11/08 05:12:39;;;;;;;1.55;0.95;;;20.10;99.90;;;;;;5030480;28;20495;-41
2022/11/08 05:15:09;;;;;;;1.00;0.80;;;20.00;99.90;;;;;;5027689;28;20675;-40
2022/11/08 05:17:35;;;;;;;1.00;0.90;;;20.10;99.90;;;;;;5022111;28;20224;-40
2022/11/08 05:25:31;;;;;;;1.20;0.80;;;20.00;99.90;;;;;;5018678;28;20338;-40
2022/11/08 05:27:57;;;;;;;1.80;1.13;;;20.00;99.90;;;;;;5029764;28;20202;-41
2022/11/08 05:30:25;;;;;;;1.23;0.80;;;20.00;99.90;;;;;;5022610;28;20227;-41
2022/11/08 05:32:52;;;;;;;1.65;1.10;;;20.00;99.90;;;;;;5019817;28;20196;-40
2022/11/08 05:35:21;;;;;;;1.20;0.95;;;20.00;99.90;;;;;;5022444;28;20226;-41
2022/11/08 05:37:48;;;;;;;1.20;0.90;;;20.00;99.90;;;;;;5028535;28;20667;-40
2022/11/08 05:40:15;;;;;;;1.08;0.90;;;20.00;99.90;;;;;;5020222;28;20200;-40
2022/11/08 05:42:41;;;;;;;1.27;0.95;;;20.00;99.90;;;;;;5021886;28;20208;-41
2022/11/08 05:45:09;;;;;;;1.20;1.00;;;20.00;99.90;;;;;;5026864;28;20219;-41
2022/11/08 05:47:37;;;;;;;1.50;1.40;;;20.00;99.90;;;;;;5021398;28;20191;-41
2022/11/08 05:50:05;;;;;;;3.10;1.50;;;19.90;99.90;;;;;;5032039;28;20322;-40
2022/11/08 05:52:31;;;;;;;1.00;0.90;;;19.90;99.90;;;;;;5032599;28;20199;-40
2022/11/08 05:54:58;;;;;;;1.30;0.85;;;19.90;99.90;;;;;;5029876;28;20218;-40
2022/11/08 05:57:25;;;;;;;1.15;0.95;;;20.00;99.90;;;;;;5030378;28;20199;-40
2022/11/08 05:59:51;;;;;;;1.20;0.85;;;20.20;99.90;;;;;;5027146;28;20192;-40
2022/11/08 06:02:18;;;;;;;1.13;0.85;;;20.40;99.90;;;;;;5030370;28;20265;-41
2022/11/08 06:04:46;;;;;;;1.10;0.80;;;20.50;99.90;;;;;;5030096;28;20206;-40
2022/11/08 06:07:13;;;;;;;1.27;0.80;;;20.70;99.90;;;;;;5027327;28;20651;-40
2022/11/08 06:09:39;;;;;;;1.23;0.80;;;20.80;99.90;;;;;;5028465;28;20671;-40
2022/11/08 06:12:06;;;;;;;1.15;0.70;;;20.80;99.90;;;;;;5036295;28;20275;-41
2022/11/08 06:14:33;;;;;;;0.90;0.70;;;20.90;99.90;;;;;;5014530;28;20211;-41
2022/11/08 06:17:00;;;;;;;1.10;0.82;;;21.00;99.90;;;;;;5026106;28;20286;-41
2022/11/08 06:19:26;;;;;;;1.02;0.75;;;21.00;99.90;;;;;;5013925;28;20189;-41
2022/11/08 06:21:54;;;;;;;1.05;0.80;;;21.00;99.90;;;;;;5023427;28;20200;-40
2022/11/08 06:24:21;;;;;;;1.88;1.00;;;21.20;99.90;;;;;;5025004;28;20251;-41
2022/11/08 06:26:48;;;;;;;1.30;0.80;;;21.20;99.90;;;;;;5022064;28;20227;-41
2022/11/08 06:29:15;;;;;;;1.90;0.80;;;21.20;99.90;;;;;;5030763;28;20201;-41
2022/11/08 06:31:41;;;;;;;0.90;0.80;;;21.20;99.90;;;;;;5016924;28;20196;-42
2022/11/08 06:34:08;;;;;;;1.60;0.75;;;21.00;99.90;;;;;;5029616;28;20214;-43
2022/11/08 06:36:35;;;;;;;1.48;0.90;;;20.90;99.90;;;;;;5020298;28;20203;-44
2022/11/08 06:39:03;;;;;;;1.00;0.80;;;20.90;99.90;;;;;;5030858;28;20271;-43
2022/11/08 06:41:31;;;;;;;1.98;0.75;;;20.90;99.90;;;;;;5024273;28;20203;-41
2022/11/08 06:43:57;;;;;;;4.90;1.03;;;21.00;99.90;;;;;;5029640;28;20283;-41
2022/11/08 06:46:24;;;;;;;2.75;0.80;;;21.00;99.90;;;;;;5020857;28;20477;-41
2022/11/08 06:48:51;;;;;;;1.10;0.80;;;21.00;99.90;;;;;;5029449;28;20286;-42
2022/11/08 06:51:18;;;;;;;1.70;0.80;;;21.00;99.90;;;;;;5030089;28;20465;-41
2022/11/08 06:53:44;;;;;;;5.10;0.90;;;21.00;99.90;;;;;;5027273;28;20222;-41
2022/11/08 06:56:12;;;;;;;1.60;0.73;;;21.00;99.90;;;;;;5026068;28;20438;-41
2022/11/08 06:58:39;;;;;;;3.65;1.40;;;21.00;99.90;;;;;;5030544;28;20462;-41
2022/11/08 07:01:08;;;;;;;2.00;0.70;;;21.00;99.90;;;;;;5025478;28;20192;-41
2022/11/08 07:03:35;;;;;;;1.20;0.90;;;21.00;99.90;;;;;;5029381;28;20195;-41
2022/11/08 07:06:02;;;;;;;0.90;0.70;;;21.00;99.90;;;;;;5029083;28;20709;-41
2022/11/08 07:08:29;;;;;;;1.30;0.98;;;21.00;99.90;;;;;;5029439;28;20188;-44
2022/11/08 07:10:56;;;;;;;1.10;0.70;;;21.10;99.90;;;;;;5029471;28;20187;-41
2022/11/08 07:13:24;;;;;;;0.90;0.80;;;21.10;99.90;;;;;;5031761;28;20485;-41
2022/11/08 07:15:50;;;;;;;1.25;0.88;;;21.10;99.90;;;;;;5026344;28;20197;-42
2022/11/08 07:18:19;;;;;;;0.90;0.70;;;21.20;99.90;;;;;;5031439;28;20207;-41
2022/11/08 07:20:45;;;;;;;2.47;0.90;;;21.20;99.90;;;;;;5030829;28;20534;-42
2022/11/08 07:23:12;;;;;;;0.93;0.63;;;21.30;99.90;;;;;;5023325;28;20211;-41
2022/11/08 07:25:39;;;;;;;1.47;0.73;;;21.30;99.90;;;;;;5028278;28;20489;-41
2022/11/08 07:28:08;;;;;;;1.17;0.75;;;21.40;99.90;;;;;;5027470;28;20463;-41
2022/11/08 07:30:36;;;;;;;1.47;0.80;;;21.40;99.90;;;;;;5025282;28;20203;-41
2022/11/08 07:33:03;;;;;;;1.33;1.00;;;21.40;99.90;;;;;;5019987;28;20460;-41
2022/11/08 07:35:30;;;;;;;3.93;1.17;;;21.40;99.90;;;;;;5034090;28;20451;-41
2022/11/08 07:37:57;;;;;;;3.37;0.97;;;21.40;99.90;;;;;;5028101;28;20454;-42
2022/11/08 07:40:24;;;;;;;1.87;0.80;;;21.50;99.90;;;;;;5027932;28;20458;-42
2022/11/08 07:42:51;;;;;;;8.83;2.40;;;21.50;99.90;;;;;;5024968;28;20969;-41
2022/11/08 07:45:17;;;;;;;1.37;0.80;;;21.60;99.90;;;;;;5023603;28;20655;-41
2022/11/08 07:47:45;;;;;;;1.47;0.83;;;21.60;99.90;;;;;;5030892;28;20450;-41
2022/11/08 07:50:12;;;;;;;1.00;0.80;;;21.60;99.90;;;;;;5030661;28;20450;-41
2022/11/08 07:52:39;;;;;;;1.87;0.80;;;21.70;99.90;;;;;;5029387;28;20461;-41
2022/11/08 07:55:07;;;;;;;1.27;0.90;;;21.70;99.90;;;;;;5028471;28;20842;-41
2022/11/08 07:57:33;;;;;;;1.10;0.70;;;21.80;99.90;;;;;;5017494;28;20694;-41
2022/11/08 08:00:00;;;;;;;1.63;1.00;;;21.80;99.90;;;;;;5027929;28;20461;-42
2022/11/08 08:02:27;;;;;;;1.93;0.80;;;21.80;99.90;;;;;;5021097;28;20477;-41
2022/11/08 08:04:55;;;;;;;1.40;0.70;;;21.90;99.90;;;;;;5022134;28;20902;-41
2022/11/08 08:07:21;;;;;;;2.90;1.20;;;21.90;99.90;;;;;;5025707;28;20490;-40
2022/11/08 08:09:48;;;;;;;2.03;1.10;;;22.00;99.90;;;;;;5026529;28;20471;-41
2022/11/08 08:12:14;;;;;;;2.07;0.80;;;22.00;99.80;;;;;;5029252;28;20449;-41
2022/11/08 08:14:41;;;;;;;1.30;0.80;;;22.00;99.70;;;;;;5030080;28;20459;-41
2022/11/08 08:17:08;;;;;;;1.23;0.77;;;22.00;99.60;;;;;;5023376;28;20846;-41
2022/11/08 08:19:34;;;;;;;1.27;0.87;;;22.00;99.40;;;;;;5029759;28;20454;-42
2022/11/08 08:22:02;;;;;;;1.37;1.10;;;22.10;99.40;;;;;;5027730;28;20810;-41
2022/11/08 08:24:29;;;;;;;1.07;0.80;;;22.10;99.20;;;;;;5017479;28;20459;-41
2022/11/08 08:26:56;;;;;;;0.90;0.73;;;22.10;99.10;;;;;;5027317;28;20485;-41
2022/11/08 08:29:23;;;;;;;1.23;0.90;;;22.10;99.00;;;;;;5029490;28;20470;-43
2022/11/08 08:31:49;;;;;;;1.10;0.80;;;22.20;99.00;;;;;;5021866;28;20467;-43
2022/11/08 08:34:16;;;;;;;1.20;0.90;;;22.20;98.90;;;;;;5025723;28;20462;-41
2022/11/08 08:36:43;;;;;;;3.63;0.80;;;22.20;98.80;;;;;;5029815;28;20461;-41
2022/11/08 08:39:11;;;;;;;1.10;0.80;;;22.20;98.70;;;;;;5022419;28;20465;-40
2022/11/08 08:41:38;;;;;;;0.90;0.70;;;22.20;98.60;;;;;;5029443;28;20818;-40
2022/11/08 08:44:05;;;;;;;1.07;0.97;;;22.20;98.50;;;;;;5029519;28;20803;-41
2022/11/08 08:46:32;;;;;;;0.90;0.70;;;22.30;98.40;;;;;;5018032;28;20979;-39
2022/11/08 08:48:59;;;;;;;1.60;0.83;;;22.20;98.30;;;;;;5028807;28;20459;-42
2022/11/08 08:51:25;;;;;;;1.50;0.80;;;22.20;98.40;;;;;;5025683;28;20459;-41
2022/11/08 08:53:52;;;;;;;1.20;0.87;;;22.20;98.40;;;;;;5023828;28;20455;-47
2022/11/08 08:56:20;;;;;;;1.20;0.90;;;22.20;98.40;;;;;;5024985;28;20455;-42
2022/11/08 08:58:48;;;;;;;0.90;0.70;;;22.20;98.60;;;;;;5018300;28;20621;-43
2022/11/08 09:01:15;;;;;;;1.30;0.80;;;22.10;98.70;;;;;;5024660;28;20984;-44
2022/11/08 09:03:41;;;;;;;2.17;0.90;;;22.20;98.80;;;;;;5026607;28;20451;-41
2022/11/08 09:06:08;;;;;;;1.10;0.90;;;22.20;98.80;;;;;;5026176;28;20539;-44
2022/11/08 09:08:35;;;;;;;2.20;0.90;;;22.20;98.90;;;;;;5018624;28;20455;-43
2022/11/08 09:11:02;;;;;;;1.40;0.87;;;22.20;99.00;;;;;;5022508;28;20434;-42
2022/11/08 09:13:31;;;;;;;2.80;0.80;;;22.20;99.00;;;;;;5024313;28;20454;-43
2022/11/08 09:15:58;;;;;;;1.27;0.80;;;22.30;99.00;;;;;;5028677;28;20458;-43
2022/11/08 09:18:25;;;;;;;1.47;0.80;;;22.30;99.00;;;;;;5028357;28;20481;-42
2022/11/08 09:20:55;;;;;;;2.17;0.93;;;22.30;99.00;;;;;;5027372;28;20455;-43
2022/11/08 09:23:22;;;;;;;1.10;0.90;;;22.40;99.00;;;;;;5020189;28;20465;-44
2022/11/08 09:25:48;;;;;;;1.20;0.87;;;22.40;99.00;;;;;;5030974;28;20458;-42
2022/11/08 09:28:15;;;;;;;0.90;0.70;;;22.50;98.90;;;;;;5033905;28;20465;-42
2022/11/08 09:30:43;;;;;;;1.10;0.80;;;22.50;98.90;;;;;;5029441;28;20458;-43
2022/11/08 09:33:10;;;;;;;0.90;0.80;;;22.50;98.90;;;;;;5032548;28;20450;-43
2022/11/08 09:35:37;;;;;;;1.37;0.80;;;22.50;98.80;;;;;;5029198;28;20464;-42
2022/11/08 09:38:03;;;;;;;1.23;0.83;;;22.60;98.80;;;;;;5032612;28;20461;-43
2022/11/08 09:40:37;;;;;;;2.07;1.00;;;22.60;98.80;;;;;;5029325;28;20974;-41
2022/11/08 09:43:19;;;;;;;3.83;1.07;;;22.60;98.70;;;;;;5031585;28;20466;-43
2022/11/08 09:45:49;;;;;;;6.50;0.90;;;22.60;98.70;;;;;;5028810;28;20470;-44
2022/11/08 09:48:24;;;;;;;1.10;0.83;;;22.60;98.70;;;;;;5032375;28;20490;-44
2022/11/08 09:50:53;;;;;;;1.00;0.70;;;22.70;98.40;;;;;;5029066;28;20462;-43
2022/11/08 09:53:30;;;;;;;2.27;0.90;;;22.70;98.20;;;;;;5024439;28;20465;-45
2022/11/08 09:55:59;;;;;;;1.33;0.90;;;22.70;98.30;;;;;;5028591;28;20469;-43
2022/11/08 09:58:33;;;;;;;1.07;0.70;;;22.70;98.40;;;;;;5036733;28;20497;-44
2022/11/08 10:01:01;;;;;;;2.13;0.77;;;22.70;98.40;;;;;;5030191;28;20877;-43
2022/11/08 10:03:29;;;;;;;1.30;0.90;;;22.70;98.40;;;;;;5031423;28;20999;-44
2022/11/08 10:06:12;;;;;;;1.00;0.67;;;22.70;98.30;;;;;;5028262;28;20469;-43
2022/11/08 10:08:46;;;;;;;1.23;0.73;;;22.70;98.30;;;;;;5031510;28;20485;-44
2022/11/08 10:11:27;;;;;;;0.90;0.70;;;22.80;98.30;;;;;;5032294;28;20466;-44
2022/11/08 10:14:09;;;;;;;1.93;1.03;;;22.80;98.30;;;;;;5025488;28;20858;-43
2022/11/08 10:16:48;;;;;;;4.13;0.90;;;22.80;98.20;;;;;;5029465;28;20601;-42
2022/11/08 10:19:34;;;;;;;1.37;1.00;;;22.80;98.20;;;;;;5026015;28;20474;-43
2022/11/08 10:22:05;;;;;;;1.30;1.00;;;22.80;98.20;;;;;;5023841;28;20458;-47
2022/11/08 10:24:42;;;;;;;1.90;0.77;;;22.80;98.20;;;;;;5022782;28;20466;-42
2022/11/08 10:27:15;;;;;;;1.83;0.70;;;22.80;98.20;;;;;;5029734;28;20486;-43
2022/11/08 10:29:45;;;;;;;1.27;0.70;;;22.80;98.20;;;;;;5024398;28;20538;-42
2022/11/08 10:32:18;;;;;;;0.90;0.80;;;22.80;98.10;;;;;;5026884;28;20455;-42
2022/11/08 10:34:51;;;;;;;1.00;0.70;;;22.80;98.10;;;;;;5025699;28;20577;-43
2022/11/08 10:37:18;;;;;;;1.10;0.90;;;22.80;98.10;;;;;;5031050;28;20466;-43
2022/11/08 10:39:52;;;;;;;1.33;0.90;;;22.90;98.20;;;;;;5028103;28;20474;-43
2022/11/08 10:42:29;;;;;;;1.20;1.00;;;22.90;98.00;;;;;;5027891;28;20485;-43
2022/11/08 10:44:56;;;;;;;1.20;0.80;;;22.80;97.90;;;;;;5028328;28;20454;-45
2022/11/08 10:47:27;;;;;;;1.00;0.80;;;22.90;98.00;;;;;;5029867;28;20478;-43
2022/11/08 10:49:53;;;;;;;2.50;0.93;;;22.90;97.90;;;;;;5024145;28;20480;-47
2022/11/08 10:52:38;;;;;;;6.97;1.30;;;22.90;97.80;;;;;;5032082;28;20572;-35
2022/11/08 10:55:07;;;;;;;11.67;1.40;;;21.80;84.90;;;;;;5018396;28;20553;-35
2022/11/08 10:57:42;;;;;;;1.70;1.10;;;21.10;79.20;;;;;;5028130;28;20462;-35
2022/11/08 11:00:24;;;;;;;2.20;1.33;;;20.60;79.30;;;;;;5032824;28;20446;-35
2022/11/08 11:02:53;;;;;;;2.50;1.20;;;20.50;80.30;;;;;;5027305;28;20455;-35
2022/11/08 11:05:32;;;;;;;1.58;1.33;;;20.40;82.70;;;;;;5031471;28;20196;-34
2022/11/08 11:08:13;;;;;;;2.15;1.00;;;20.70;79.80;;;;;;5028704;28;20216;-34
2022/11/08 11:10:42;;;;;;;1.77;1.20;;;20.70;77.30;;;;;;5019737;28;20261;-34
2022/11/08 11:13:12;;;;;;;1.48;1.20;;;20.60;79.50;;;;;;5025229;28;20188;-34
2022/11/08 11:15:44;;;;;;;1.75;1.50;;;20.70;78.10;;;;;;5032148;28;20573;-35
2022/11/08 11:18:23;;;;;;;4.95;2.08;;;20.40;77.80;;;;;;5026683;28;20316;-34
2022/11/08 11:21:07;;;;;;;2.00;1.30;;;19.90;77.90;;;;;;5025544;28;20200;-35
2022/11/08 11:23:40;;;;;;;1.92;1.60;;;20.10;77.80;;;;;;5029950;28;20211;-35
2022/11/08 11:26:17;;;;;;;7.38;1.88;;;19.70;79.80;;;;;;5026060;28;20246;-34
2022/11/08 11:29:00;;;;;;;2.65;1.17;;;19.90;78.70;;;;;;5029921;28;20624;-34
2022/11/08 11:31:27;;;;;;;2.67;1.80;;;20.00;79.40;;;;;;5023969;28;20261;-35
2022/11/08 11:33:55;;;;;;;4.38;2.00;;;19.70;79.70;;;;;;5021383;28;20200;-34
2022/11/08 11:36:27;;;;;;;1.95;1.40;;;19.60;80.80;;;;;;5029964;28;20200;-36
2022/11/08 11:39:02;;;;;;;4.35;1.63;;;19.30;79.90;;;;;;5026389;28;20635;-36
2022/11/08 11:41:42;;;;;;;3.08;2.13;;;19.60;80.30;;;;;;5024995;28;20207;-36
2022/11/08 11:44:18;;;;;;;3.70;1.67;;;19.50;80.00;;;;;;5032790;28;20704;-34
2022/11/08 11:46:53;;;;;;;3.47;2.15;;;19.70;79.50;;;;;;5023230;28;20222;-34
2022/11/08 11:49:21;;;;;;;2.55;1.58;;;19.90;80.70;;;;;;5023495;28;20199;-34
2022/11/08 11:51:52;;;;;;;2.20;1.35;;;19.70;80.20;;;;;;5029482;28;20669;-48
2022/11/08 11:54:19;;;;;;;2.13;1.55;;;20.00;86.00;;;;;;5025313;28;20203;-43
2022/11/08 11:56:51;;;;;;;2.47;1.40;;;20.70;87.10;;;;;;5027474;28;20211;-43
2022/11/08 11:59:42;;;;;;;1.70;1.60;;;21.20;87.80;;;;;;5031226;28;20543;-42
2022/11/08 12:02:45;;;;;;;2.50;1.13;;;21.60;88.00;;;;;;5020979;28;20965;-47
2022/11/08 12:05:42;;;;;;;2.60;1.17;;;21.90;89.20;;;;;;5027832;28;20450;-42
2022/11/08 12:08:21;;;;;;;1.50;1.40;;;22.10;89.50;;;;;;5025815;28;20532;-42
2022/11/08 12:11:00;;;;;;;1.67;1.30;;;22.30;89.40;;;;;;5026133;28;20485;-51
2022/11/08 12:13:41;;;;;;;2.10;1.60;;;22.40;89.10;;;;;;5027904;28;20485;-43
2022/11/08 12:16:16;;;;;;;3.43;1.63;;;22.60;88.80;;;;;;5023032;28;20458;-46
2022/11/08 12:19:00;;;;;;;2.60;1.30;;;22.60;89.00;;;;;;5028009;28;20473;-55
2022/11/08 12:21:38;;;;;;;4.50;1.30;;;22.50;90.10;;;;;;5029364;28;20467;-47
2022/11/08 12:24:22;;;;;;;2.40;1.40;;;22.50;90.40;;;;;;5021198;28;20470;-54
2022/11/08 12:26:56;;;;;;;1.97;1.17;;;22.50;90.70;;;;;;5026312;28;20465;-47
2022/11/08 12:29:26;;;;;;;1.83;1.00;;;22.60;90.90;;;;;;5027683;28;20538;-53
2022/11/08 12:32:20;;;;;;;2.20;1.03;;;22.60;91.00;;;;;;5027741;28;20477;-48
2022/11/08 12:35:02;;;;;;;3.10;1.40;;;22.60;91.10;;;;;;5028405;28;20462;-51
2022/11/08 12:37:43;;;;;;;2.03;1.30;;;22.60;91.20;;;;;;5027105;28;20500;-48
2022/11/08 12:40:19;;;;;;;1.63;1.10;;;22.70;91.40;;;;;;5029882;28;20458;-47
2022/11/08 12:43:12;;;;;;;1.67;1.10;;;22.70;91.50;;;;;;5022378;28;20833;-48
2022/11/08 12:46:01;;;;;;;4.23;1.77;;;22.70;91.60;;;;;;5026619;28;20822;-49
2022/11/08 12:48:48;;;;;;;2.33;1.60;;;22.80;91.40;;;;;;5020354;28;20480;-48
2022/11/08 12:51:24;;;;;;;1.67;1.00;;;22.80;91.80;;;;;;5028650;28;20968;-49
2022/11/08 12:54:07;;;;;;;1.20;0.93;;;22.80;91.80;;;;;;5028619;28;20465;-50
2022/11/08 12:56:39;;;;;;;1.37;0.90;;;22.80;91.90;;;;;;5023087;28;20818;-62
2022/11/08 12:59:16;;;;;;;3.17;1.00;;;22.90;91.90;;;;;;5030982;28;20811;-48
2022/11/08 13:01:43;;;;;;;2.70;1.57;;;22.90;91.90;;;;;;5028777;28;20642;-46
2022/11/08 13:04:43;;;;;;;1.40;1.20;;;22.90;92.00;;;;;;5030278;28;20458;-47
2022/11/08 13:07:21;;;;;;;1.60;1.10;;;22.90;92.00;;;;;;5027326;28;20481;-53
2022/11/08 13:09:56;;;;;;;3.77;1.20;;;22.90;92.10;;;;;;5032124;28;20466;-47
2022/11/08 13:12:32;;;;;;;1.30;1.10;;;22.90;92.20;;;;;;5031753;28;20468;-47
2022/11/08 13:15:00;;;;;;;2.80;1.10;;;23.00;91.80;;;;;;5026745;28;20466;-42
2022/11/08 13:17:27;;;;;;;2.60;1.20;;;22.90;91.80;;;;;;5023531;28;20506;-44
2022/11/08 13:19:57;;;;;;;1.63;1.20;;;22.90;91.80;;;;;;5026733;28;20462;-44
2022/11/08 13:23:08;;;;;;;1.30;1.20;;;22.90;92.10;;;;;;5027972;28;20515;-48
2022/11/08 13:25:38;;;;;;;2.03;0.93;;;23.00;91.80;;;;;;5018829;28;20844;-44